Time;durP1;ratioP1;P1;durP2;ratioP2;P2;SDS_P1;SDS_P2;PMS_P1;PMS_P2;Temp;Humidity;BMP_temperature;BMP_pressure;BME280_temperature;BME280_humidity;BME280_pressure;Samples;Min_cycle;Max_cycle;Signal;HPM_P1;HPM_P2
2023/01/05 00:01:45;;;;;;;16.10;11.65;;;12.00;99.90;;;;;;5127218;28;20230;-81
2023/01/05 00:04:19;;;;;;;9.95;5.60;;;11.90;99.90;;;;;;5128735;28;20218;-79
2023/01/05 00:06:47;;;;;;;6.75;4.25;;;12.00;99.90;;;;;;5129942;28;20274;-79
2023/01/05 00:09:19;;;;;;;11.88;8.07;;;12.00;99.90;;;;;;5134888;28;20230;-82
2023/01/05 00:23:02;;;;;;;9.23;6.32;;;11.90;99.90;;;;;;5105536;28;20222;-80
2023/01/05 00:25:31;;;;;;;5.28;3.00;;;11.80;99.90;;;;;;5131607;28;20283;-81
2023/01/05 00:27:58;;;;;;;19.38;12.82;;;11.80;99.90;;;;;;5124974;28;20222;-81
2023/01/05 00:30:28;;;;;;;13.48;7.38;;;11.80;99.90;;;;;;5127519;28;20309;-79
2023/01/05 00:32:58;;;;;;;10.82;6.43;;;11.80;99.90;;;;;;5131762;28;20227;-79
2023/01/05 00:35:29;;;;;;;15.07;7.45;;;11.80;99.90;;;;;;5130020;28;20663;-79
2023/01/05 00:37:59;;;;;;;6.03;3.50;;;11.80;99.90;;;;;;5127420;28;20227;-82
2023/01/05 00:40:26;;;;;;;11.88;8.27;;;11.80;99.90;;;;;;5126416;28;20242;-81
2023/01/05 00:42:55;;;;;;;19.45;15.52;;;11.90;99.90;;;;;;5124574;28;20226;-80
2023/01/05 00:45:22;;;;;;;10.32;7.63;;;11.80;99.90;;;;;;5119199;28;20227;-80
2023/01/05 00:47:50;;;;;;;42.13;24.50;;;11.90;99.90;;;;;;5119033;28;20305;-81
2023/01/05 00:50:18;;;;;;;7.20;4.65;;;11.90;99.90;;;;;;5117978;28;20225;-79
2023/01/05 00:52:50;;;;;;;9.25;4.28;;;11.90;99.90;;;;;;5114520;28;20234;-80
2023/01/05 00:55:17;;;;;;;15.85;5.88;;;11.90;99.90;;;;;;5114831;27;20581;-79
2023/01/05 00:57:45;;;;;;;14.93;11.13;;;11.90;99.90;;;;;;5114757;28;20218;-82
2023/01/05 01:00:16;;;;;;;7.90;6.20;;;12.00;99.90;;;;;;5114768;28;20223;-82
2023/01/05 01:02:43;;;;;;;13.35;6.97;;;12.00;99.90;;;;;;5115003;27;20226;-81
2023/01/05 01:05:10;;;;;;;6.72;3.38;;;12.00;99.90;;;;;;5116065;28;20215;-81
2023/01/05 01:07:48;;;;;;;15.52;7.30;;;12.00;99.90;;;;;;5113835;28;20218;-79
2023/01/05 01:10:17;;;;;;;11.68;4.68;;;12.00;99.90;;;;;;5114408;28;20542;-82
2023/01/05 01:12:44;;;;;;;18.65;10.07;;;12.00;99.90;;;;;;5113513;28;20558;-82
2023/01/05 01:15:11;;;;;;;7.80;4.15;;;12.00;99.90;;;;;;5114584;28;20536;-82
2023/01/05 01:17:38;;;;;;;12.32;7.30;;;12.00;99.90;;;;;;5113301;28;20284;-82
2023/01/05 01:20:14;;;;;;;16.15;7.50;;;12.00;99.90;;;;;;5114641;28;20295;-82
2023/01/05 01:22:41;;;;;;;19.98;9.77;;;12.00;99.90;;;;;;5113471;28;20581;-81
2023/01/05 01:25:09;;;;;;;10.90;6.07;;;12.00;99.90;;;;;;5114334;28;20230;-79
2023/01/05 01:27:37;;;;;;;14.93;5.65;;;12.00;99.90;;;;;;5113193;28;20296;-81
2023/01/05 01:30:06;;;;;;;10.10;4.85;;;12.00;99.90;;;;;;5114686;28;20678;-81
2023/01/05 01:32:33;;;;;;;11.98;6.80;;;11.90;99.90;;;;;;5113053;28;20497;-80
2023/01/05 01:35:00;;;;;;;15.38;9.68;;;12.00;99.90;;;;;;5112674;28;20264;-81
2023/01/05 01:37:27;;;;;;;12.02;4.90;;;11.90;99.90;;;;;;5113887;28;20559;-82
2023/01/05 01:39:57;;;;;;;14.48;5.82;;;12.00;99.90;;;;;;5114608;28;20230;-81
2023/01/05 01:42:24;;;;;;;28.55;16.65;;;12.00;99.90;;;;;;5113755;28;20218;-79
2023/01/05 01:44:58;;;;;;;19.75;7.72;;;12.00;99.90;;;;;;5113215;28;20219;-79
2023/01/05 01:47:36;;;;;;;7.97;3.30;;;11.90;99.90;;;;;;5113770;28;20226;-81
2023/01/05 01:50:09;;;;;;;10.95;3.80;;;12.00;99.90;;;;;;5114103;28;20233;-80
2023/01/05 01:52:37;;;;;;;5.18;1.98;;;11.90;99.90;;;;;;5113389;28;20292;-79
2023/01/05 01:55:08;;;;;;;11.52;5.75;;;11.90;99.90;;;;;;5113353;28;20317;-79
2023/01/05 01:57:37;;;;;;;7.88;4.20;;;11.90;99.90;;;;;;5112091;28;20287;-79
2023/01/05 02:00:13;;;;;;;6.93;2.42;;;11.90;99.90;;;;;;5113368;28;20271;-80
2023/01/05 02:02:54;;;;;;;9.77;3.03;;;11.90;99.90;;;;;;5111963;28;20679;-79
2023/01/05 02:05:24;;;;;;;7.25;4.05;;;11.90;99.90;;;;;;5112974;28;20515;-79
2023/01/05 02:07:51;;;;;;;4.85;3.35;;;11.90;99.90;;;;;;5113399;28;20587;-79
2023/01/05 02:10:35;;;;;;;11.20;7.50;;;11.90;99.90;;;;;;5107845;28;20305;-80
2023/01/05 02:13:16;;;;;;;6.78;2.70;;;11.90;99.90;;;;;;5104297;28;20246;-79
2023/01/05 02:15:53;;;;;;;9.48;4.65;;;11.90;99.90;;;;;;5112495;28;20329;-79
2023/01/05 02:18:40;;;;;;;24.90;14.05;;;11.90;99.90;;;;;;5110793;28;20272;-83
2023/01/05 02:21:26;;;;;;;5.97;4.32;;;11.90;99.90;;;;;;5117528;28;20671;-82
2023/01/05 02:24:31;;;;;;;21.13;10.18;;;11.90;99.90;;;;;;5102310;28;20223;-82
2023/01/05 02:27:29;;;;;;;4.43;2.67;;;11.90;99.90;;;;;;5115267;28;20226;-80
2023/01/05 02:30:26;;;;;;;7.72;4.20;;;11.90;99.90;;;;;;5125020;28;20226;-84
2023/01/05 02:33:00;;;;;;;8.40;3.28;;;11.90;99.90;;;;;;5124082;28;20230;-82
2023/01/05 02:35:39;;;;;;;11.40;6.38;;;11.80;99.90;;;;;;5122944;28;20232;-82
2023/01/05 02:38:14;;;;;;;7.65;2.20;;;11.90;99.90;;;;;;5114495;28;20301;-83
2023/01/05 02:40:45;;;;;;;6.05;4.28;;;11.90;99.90;;;;;;5105673;28;20230;-80
2023/01/05 02:43:14;;;;;;;4.82;2.60;;;11.90;99.90;;;;;;5111326;28;20227;-79
2023/01/05 02:45:42;;;;;;;11.18;5.72;;;11.80;99.90;;;;;;5116804;28;20237;-83
2023/01/05 02:48:11;;;;;;;11.45;6.57;;;11.90;99.90;;;;;;5117060;28;20291;-82
2023/01/05 02:50:44;;;;;;;5.38;3.40;;;11.90;99.90;;;;;;5118165;28;20250;-80
2023/01/05 02:53:17;;;;;;;7.00;3.03;;;11.90;99.90;;;;;;5117299;28;20219;-78
2023/01/05 02:55:50;;;;;;;5.97;2.58;;;11.90;99.90;;;;;;5117689;28;20310;-81
2023/01/05 02:58:21;;;;;;;7.45;3.30;;;11.90;99.90;;;;;;5117024;28;20223;-78
2023/01/05 03:00:53;;;;;;;16.65;7.32;;;11.90;99.90;;;;;;5116279;28;20598;-78
2023/01/05 03:03:31;;;;;;;10.90;6.10;;;11.90;99.90;;;;;;5115836;28;20217;-82
2023/01/05 03:06:04;;;;;;;9.63;5.85;;;12.00;99.90;;;;;;5115918;28;20233;-79
2023/01/05 03:08:37;;;;;;;7.88;3.60;;;12.00;99.90;;;;;;5117050;28;20234;-81
2023/01/05 03:13:59;;;;;;;7.22;3.28;;;12.00;99.90;;;;;;5090137;28;20218;-80
2023/01/05 03:16:28;;;;;;;11.82;4.18;;;12.00;99.90;;;;;;5116426;28;20218;-78
2023/01/05 03:35:44;;;;;;;6.70;3.00;;;11.90;99.90;;;;;;5115954;28;20253;-79
2023/01/05 03:38:16;;;;;;;4.75;2.88;;;12.00;99.90;;;;;;5115591;28;20237;-82
2023/01/05 03:40:45;;;;;;;8.15;2.60;;;12.00;99.90;;;;;;5115038;28;20223;-80
2023/01/05 03:43:12;;;;;;;10.40;6.00;;;12.00;99.90;;;;;;5114936;28;20226;-82
2023/01/05 03:45:45;;;;;;;8.40;4.63;;;12.00;99.90;;;;;;5115544;28;20283;-79
2023/01/05 03:48:29;;;;;;;7.35;4.55;;;12.00;99.90;;;;;;5120578;27;20229;-80
2023/01/05 03:51:00;;;;;;;12.07;5.80;;;11.90;99.90;;;;;;5114726;28;20250;-82
2023/01/05 03:53:30;;;;;;;9.40;5.93;;;11.90;99.90;;;;;;5115189;28;20234;-82
2023/01/05 03:55:57;;;;;;;8.35;3.28;;;12.00;99.90;;;;;;5114866;28;20237;-80
2023/01/05 03:58:25;;;;;;;4.93;2.42;;;12.00;99.90;;;;;;5116612;28;20219;-80
2023/01/05 04:00:52;;;;;;;3.83;2.80;;;12.00;99.90;;;;;;5107264;28;20218;-81
2023/01/05 04:03:23;;;;;;;5.65;2.40;;;12.00;99.90;;;;;;5115895;28;20280;-79
2023/01/05 04:05:50;;;;;;;3.08;2.10;;;12.00;99.90;;;;;;5114505;28;20222;-82
2023/01/05 04:08:18;;;;;;;6.18;2.22;;;12.00;99.90;;;;;;5117986;28;20222;-79
2023/01/05 04:10:45;;;;;;;5.85;3.45;;;12.00;99.90;;;;;;5106806;27;20306;-79
2023/01/05 04:13:12;;;;;;;4.57;3.10;;;11.90;99.90;;;;;;5131822;27;20347;-81
2023/01/05 04:15:41;;;;;;;9.52;3.92;;;11.90;99.90;;;;;;5114727;28;20311;-81
2023/01/05 04:18:08;;;;;;;7.45;3.72;;;11.80;99.90;;;;;;5115180;28;20664;-78
2023/01/05 04:20:35;;;;;;;6.03;2.75;;;11.80;99.90;;;;;;5114810;28;20334;-79
2023/01/05 04:23:02;;;;;;;9.32;4.82;;;11.80;99.90;;;;;;5114460;28;20227;-79
2023/01/05 04:25:31;;;;;;;5.93;2.22;;;11.80;99.90;;;;;;5114553;28;20279;-82
2023/01/05 04:27:59;;;;;;;6.25;2.58;;;11.80;99.90;;;;;;5113961;28;20591;-79
2023/01/05 04:30:26;;;;;;;7.18;3.88;;;11.80;99.90;;;;;;5114710;28;20679;-79
2023/01/05 04:32:53;;;;;;;11.90;6.93;;;11.80;99.90;;;;;;5119312;27;20218;-79
2023/01/05 04:35:20;;;;;;;5.38;2.10;;;11.80;99.90;;;;;;5114936;28;20646;-81
2023/01/05 04:37:49;;;;;;;7.63;3.85;;;11.80;99.90;;;;;;5113989;28;20310;-80
2023/01/05 04:40:17;;;;;;;7.28;3.10;;;11.80;99.90;;;;;;5117393;27;20278;-80
2023/01/05 04:42:46;;;;;;;5.65;2.70;;;11.80;99.90;;;;;;5117398;27;20302;-80
2023/01/05 04:45:16;;;;;;;15.05;6.97;;;11.80;99.90;;;;;;5114284;28;20227;-80
2023/01/05 04:47:43;;;;;;;5.75;2.65;;;11.80;99.90;;;;;;5114788;28;20222;-80
2023/01/05 04:50:11;;;;;;;5.07;2.15;;;11.80;99.90;;;;;;5104968;28;20325;-80
2023/01/05 04:52:38;;;;;;;4.90;2.30;;;11.80;99.90;;;;;;5114289;28;20285;-80
2023/01/05 04:55:06;;;;;;;6.30;2.83;;;11.80;99.90;;;;;;5113526;28;20231;-83
2023/01/05 04:57:36;;;;;;;3.38;1.70;;;11.80;99.90;;;;;;5114777;28;20227;-83
2023/01/05 05:00:05;;;;;;;10.57;2.67;;;11.80;99.90;;;;;;5113775;28;20231;-83
2023/01/05 05:02:33;;;;;;;1.60;1.48;;;11.70;99.90;;;;;;5114262;28;20226;-82
2023/01/05 05:05:00;;;;;;;5.45;2.03;;;11.70;99.90;;;;;;5113172;28;20230;-80
2023/01/05 05:07:27;;;;;;;3.40;2.17;;;11.70;99.90;;;;;;5113651;28;20225;-82
2023/01/05 05:09:54;;;;;;;4.28;2.15;;;11.70;99.90;;;;;;5112943;28;20574;-80
2023/01/05 05:12:22;;;;;;;6.78;2.65;;;11.70;99.90;;;;;;5113817;28;20306;-83
2023/01/05 05:14:49;;;;;;;5.63;2.97;;;11.70;99.90;;;;;;5114202;28;20222;-80
2023/01/05 05:17:18;;;;;;;4.45;3.60;;;11.70;99.90;;;;;;5113097;28;20701;-82
2023/01/05 05:19:44;;;;;;;2.30;1.77;;;11.60;99.90;;;;;;5118801;27;20230;-82
2023/01/05 05:22:15;;;;;;;3.38;1.50;;;11.60;99.90;;;;;;5114815;28;20230;-83
2023/01/05 05:24:42;;;;;;;3.50;2.47;;;11.60;99.90;;;;;;5113842;28;20571;-83
2023/01/05 05:27:19;;;;;;;6.65;2.10;;;11.60;99.90;;;;;;5113041;28;20272;-83
2023/01/05 05:29:49;;;;;;;8.20;6.55;;;11.60;99.90;;;;;;5114027;28;20309;-80
2023/01/05 05:32:17;;;;;;;4.97;2.22;;;11.60;99.90;;;;;;5101387;28;20257;-83
2023/01/05 05:34:44;;;;;;;5.28;2.33;;;11.60;99.90;;;;;;5112457;28;20242;-83
2023/01/05 05:37:11;;;;;;;3.92;2.15;;;11.60;99.90;;;;;;5114348;28;20236;-80
2023/01/05 05:39:38;;;;;;;5.78;2.80;;;11.60;99.90;;;;;;5112366;28;20226;-80
2023/01/05 05:42:06;;;;;;;6.18;2.60;;;11.60;99.90;;;;;;5113224;28;20218;-79
2023/01/05 05:44:35;;;;;;;7.68;5.22;;;11.50;99.90;;;;;;5113679;28;20226;-80
2023/01/05 05:47:02;;;;;;;4.75;2.33;;;11.60;99.90;;;;;;5113267;28;20226;-83
2023/01/05 05:49:30;;;;;;;7.90;2.70;;;11.60;99.90;;;;;;5105890;28;20287;-80
2023/01/05 05:51:57;;;;;;;3.70;2.10;;;11.50;99.90;;;;;;5113228;28;20309;-80
2023/01/05 05:54:24;;;;;;;4.45;2.22;;;11.50;99.90;;;;;;5113634;28;20218;-80
2023/01/05 05:56:51;;;;;;;9.45;5.70;;;11.60;99.90;;;;;;5110573;28;20719;-80
2023/01/05 05:59:18;;;;;;;5.95;3.00;;;11.60;99.90;;;;;;5112836;28;20230;-80
2023/01/05 06:01:45;;;;;;;7.97;3.03;;;11.50;99.90;;;;;;5112907;28;20261;-80
2023/01/05 06:04:12;;;;;;;8.48;4.45;;;11.50;99.90;;;;;;5113378;28;20282;-82
2023/01/05 06:06:41;;;;;;;4.30;2.00;;;11.50;99.90;;;;;;5113539;28;20629;-83
2023/01/05 06:09:08;;;;;;;5.28;3.38;;;11.50;99.90;;;;;;5112831;28;20238;-82
2023/01/05 06:11:35;;;;;;;3.42;1.73;;;11.40;99.90;;;;;;5113557;28;20226;-82
2023/01/05 06:14:03;;;;;;;9.15;3.55;;;11.40;99.90;;;;;;5113054;28;20222;-80
2023/01/05 06:16:30;;;;;;;4.78;3.22;;;11.30;99.90;;;;;;5113213;28;20544;-79
2023/01/05 06:18:57;;;;;;;2.15;1.83;;;11.30;99.90;;;;;;5113796;28;20279;-79
2023/01/05 06:21:24;;;;;;;2.53;2.33;;;11.30;99.90;;;;;;5117613;28;20250;-82
2023/01/05 06:23:52;;;;;;;4.05;2.55;;;11.30;99.90;;;;;;5116481;28;20305;-82
2023/01/05 06:26:19;;;;;;;1.80;1.40;;;11.20;99.90;;;;;;5117305;28;20310;-82
2023/01/05 06:28:46;;;;;;;4.22;2.50;;;11.20;99.90;;;;;;5116414;28;20223;-82
2023/01/05 06:31:14;;;;;;;2.28;2.05;;;11.20;99.90;;;;;;5116967;28;20225;-80
2023/01/05 06:33:43;;;;;;;4.22;2.00;;;11.20;99.90;;;;;;5117066;28;20222;-80
2023/01/05 06:36:11;;;;;;;1.83;1.55;;;11.10;99.90;;;;;;5121953;27;20671;-80
2023/01/05 06:38:38;;;;;;;3.40;2.00;;;11.00;99.90;;;;;;5108412;28;20242;-79
2023/01/05 06:41:06;;;;;;;2.25;2.05;;;11.00;99.90;;;;;;5115880;28;20280;-79
2023/01/05 06:43:34;;;;;;;8.15;5.40;;;11.00;99.90;;;;;;5117223;28;20214;-82
2023/01/05 06:46:02;;;;;;;4.03;3.28;;;11.00;99.90;;;;;;5116283;28;20574;-79
2023/01/05 06:48:29;;;;;;;2.25;1.80;;;11.00;99.90;;;;;;5117155;28;20214;-79
2023/01/05 06:50:56;;;;;;;1.98;1.60;;;11.00;99.90;;;;;;5116257;28;20219;-79
2023/01/05 06:53:23;;;;;;;5.35;2.95;;;10.90;99.90;;;;;;5117644;28;20238;-82
2023/01/05 06:55:54;;;;;;;2.47;2.05;;;10.90;99.90;;;;;;5119717;28;20331;-81
2023/01/05 06:58:24;;;;;;;3.50;2.55;;;10.90;99.90;;;;;;5121092;28;20287;-81
2023/01/05 07:00:54;;;;;;;2.20;1.73;;;10.90;99.90;;;;;;5125507;27;20226;-81
2023/01/05 07:03:30;;;;;;;3.55;2.08;;;10.90;99.90;;;;;;5119957;27;20218;-82
2023/01/05 07:05:57;;;;;;;3.75;1.95;;;10.90;99.90;;;;;;5119365;28;20226;-81
2023/01/05 07:08:37;;;;;;;4.82;2.88;;;10.90;99.90;;;;;;5116120;28;20548;-79
2023/01/05 07:11:12;;;;;;;5.75;3.08;;;10.90;99.90;;;;;;5116043;28;20227;-80
2023/01/05 07:13:46;;;;;;;4.13;2.53;;;10.90;99.90;;;;;;5116211;28;20226;-82
2023/01/05 07:16:14;;;;;;;6.90;3.25;;;10.80;99.90;;;;;;5115569;28;20249;-79
2023/01/05 07:18:47;;;;;;;4.35;2.05;;;10.90;99.90;;;;;;5103640;27;20512;-78
2023/01/05 07:21:14;;;;;;;3.95;3.00;;;10.80;99.90;;;;;;5116006;27;20690;-78
2023/01/05 07:23:41;;;;;;;6.90;3.80;;;10.90;99.90;;;;;;5116140;28;20279;-81
2023/01/05 07:26:09;;;;;;;3.08;2.30;;;10.90;99.90;;;;;;5115366;28;20322;-79
2023/01/05 07:28:42;;;;;;;5.18;3.30;;;10.90;99.90;;;;;;5119765;27;20590;-79
2023/01/05 07:31:10;;;;;;;6.20;3.88;;;10.90;99.90;;;;;;5115729;27;20550;-79
2023/01/05 07:33:37;;;;;;;5.90;2.65;;;11.00;99.90;;;;;;5107052;28;20618;-79
2023/01/05 07:36:05;;;;;;;4.07;3.67;;;10.90;99.90;;;;;;5114566;28;20320;-79
2023/01/05 07:38:47;;;;;;;3.25;2.08;;;10.90;99.90;;;;;;5116695;28;20309;-80
2023/01/05 07:41:14;;;;;;;3.38;2.78;;;10.90;99.90;;;;;;5116688;28;20615;-81
2023/01/05 07:43:43;;;;;;;5.13;3.55;;;10.90;99.90;;;;;;5115397;28;20219;-80
2023/01/05 07:46:10;;;;;;;2.70;2.50;;;10.90;99.90;;;;;;5115477;27;20227;-79
2023/01/05 07:48:40;;;;;;;4.78;3.42;;;10.90;99.90;;;;;;5115231;28;20246;-79
2023/01/05 07:51:08;;;;;;;2.83;2.30;;;10.90;99.90;;;;;;5115069;28;20299;-81
2023/01/05 07:53:39;;;;;;;8.00;4.88;;;10.90;99.90;;;;;;5116155;28;20604;-80
2023/01/05 07:56:07;;;;;;;7.38;5.25;;;10.90;99.90;;;;;;5115444;28;20302;-79
2023/01/05 07:58:37;;;;;;;6.40;2.97;;;10.90;99.90;;;;;;5115392;28;20229;-79
2023/01/05 08:01:08;;;;;;;4.68;3.63;;;10.80;99.90;;;;;;5114685;28;20230;-81
2023/01/05 08:03:35;;;;;;;2.20;1.70;;;10.80;99.90;;;;;;5115577;28;20621;-81
2023/01/05 08:06:07;;;;;;;6.03;3.30;;;10.80;99.90;;;;;;5114925;28;20612;-81
2023/01/05 08:08:35;;;;;;;6.55;4.25;;;10.80;99.90;;;;;;5116453;28;20229;-82
2023/01/05 08:11:03;;;;;;;1.40;1.30;;;10.80;99.90;;;;;;5106686;28;20250;-82
2023/01/05 08:16:16;;;;;;;2.75;2.08;;;10.70;99.90;;;;;;5114739;28;20542;-82
2023/01/05 08:18:43;;;;;;;2.75;1.95;;;10.70;99.90;;;;;;5115344;28;20226;-80
2023/01/05 08:21:11;;;;;;;1.70;1.40;;;10.70;99.90;;;;;;5114417;28;20299;-80
2023/01/05 08:23:38;;;;;;;2.85;1.85;;;10.70;99.90;;;;;;5115043;28;20218;-82
2023/01/05 08:26:07;;;;;;;2.13;1.90;;;10.70;99.90;;;;;;5114992;28;20283;-80
2023/01/05 08:28:35;;;;;;;4.35;3.90;;;10.80;99.90;;;;;;5116897;28;20214;-80
2023/01/05 08:31:03;;;;;;;4.07;1.95;;;10.80;99.90;;;;;;5115944;28;20226;-79
2023/01/05 08:33:35;;;;;;;1.75;1.58;;;10.70;99.90;;;;;;5114518;28;20381;-80
2023/01/05 08:36:02;;;;;;;2.33;1.30;;;10.70;99.90;;;;;;5113992;28;20227;-82
2023/01/05 08:38:29;;;;;;;3.53;2.33;;;10.70;99.90;;;;;;5113984;28;20682;-80
2023/01/05 08:40:59;;;;;;;3.25;2.45;;;10.80;99.90;;;;;;5114726;28;20668;-82
2023/01/05 08:43:27;;;;;;;4.68;2.88;;;10.70;99.90;;;;;;5112462;27;20543;-78
2023/01/05 08:45:57;;;;;;;2.15;1.42;;;10.70;99.90;;;;;;5114711;28;20331;-80
2023/01/05 08:48:32;;;;;;;3.67;2.50;;;10.70;99.90;;;;;;5111381;27;20301;-79
2023/01/05 08:51:05;;;;;;;4.28;1.90;;;10.70;99.90;;;;;;5118998;27;20667;-78
2023/01/05 08:53:33;;;;;;;3.83;1.10;;;10.70;99.90;;;;;;5113251;28;20332;-79
2023/01/05 08:56:00;;;;;;;2.58;1.90;;;10.70;99.90;;;;;;5105199;28;20670;-79
2023/01/05 08:58:27;;;;;;;2.33;1.52;;;10.70;99.90;;;;;;5113483;28;20222;-79
2023/01/05 09:00:55;;;;;;;3.45;1.60;;;10.70;99.90;;;;;;5113480;28;20310;-79
2023/01/05 09:03:25;;;;;;;1.58;1.27;;;10.70;99.90;;;;;;5111804;27;20233;-80
2023/01/05 09:05:53;;;;;;;2.83;1.40;;;10.70;99.90;;;;;;5120947;27;20238;-80
2023/01/05 09:08:22;;;;;;;3.72;1.20;;;10.70;99.90;;;;;;5113931;28;20313;-80
2023/01/05 09:10:49;;;;;;;4.43;3.03;;;10.60;99.90;;;;;;5114009;28;20283;-80
2023/01/05 09:13:16;;;;;;;1.40;1.30;;;10.60;99.90;;;;;;5117105;28;20226;-82
2023/01/05 09:15:43;;;;;;;1.98;1.55;;;10.60;99.90;;;;;;5100586;28;20317;-81
2023/01/05 09:18:58;;;;;;;4.82;2.70;;;10.50;99.90;;;;;;5112020;27;20222;-79
2023/01/05 09:21:27;;;;;;;2.53;1.90;;;10.50;99.90;;;;;;5114555;27;20226;-82
2023/01/05 09:23:58;;;;;;;1.35;1.17;;;10.50;99.90;;;;;;5116734;27;20252;-79
2023/01/05 09:26:25;;;;;;;5.65;2.80;;;10.50;99.90;;;;;;5112671;28;20226;-82
2023/01/05 09:28:54;;;;;;;1.30;0.90;;;10.50;99.90;;;;;;5112503;28;20218;-82
2023/01/05 09:31:24;;;;;;;2.90;2.60;;;10.50;99.90;;;;;;5113842;28;22224;-82
2023/01/05 09:33:51;;;;;;;1.85;1.70;;;10.50;99.90;;;;;;5113486;28;20690;-82
2023/01/05 09:36:19;;;;;;;2.58;1.65;;;10.50;99.90;;;;;;5112986;28;20253;-82
2023/01/05 09:38:49;;;;;;;4.38;2.05;;;10.40;99.90;;;;;;5106630;27;20603;-82
2023/01/05 09:41:22;;;;;;;3.42;2.08;;;10.50;99.90;;;;;;5122800;27;20219;-82
2023/01/05 09:43:52;;;;;;;2.65;1.45;;;10.50;99.90;;;;;;5113790;28;20233;-82
2023/01/05 09:46:23;;;;;;;1.67;1.40;;;10.50;99.90;;;;;;5109817;28;20218;-80
2023/01/05 09:48:52;;;;;;;6.03;2.55;;;10.50;99.90;;;;;;5113572;28;20604;-79
2023/01/05 09:51:20;;;;;;;4.43;1.90;;;10.50;99.90;;;;;;5113135;28;20237;-80
2023/01/05 09:53:47;;;;;;;4.38;2.75;;;10.60;99.90;;;;;;5113653;28;20548;-82
2023/01/05 09:56:27;;;;;;;3.13;1.40;;;10.60;99.90;;;;;;5115051;28;20218;-82
2023/01/05 09:59:01;;;;;;;4.47;2.47;;;10.60;99.90;;;;;;5113867;28;20302;-82
2023/01/05 10:01:32;;;;;;;2.78;1.55;;;10.70;99.90;;;;;;5112999;28;20214;-79
2023/01/05 10:04:06;;;;;;;3.03;1.58;;;10.70;99.90;;;;;;5111531;28;20301;-80
2023/01/05 10:06:36;;;;;;;5.82;2.95;;;10.70;99.90;;;;;;5113761;28;20218;-83
2023/01/05 10:09:05;;;;;;;2.50;1.70;;;10.80;99.90;;;;;;5113032;28;20656;-83
2023/01/05 10:14:31;;;;;;;2.58;1.33;;;10.80;99.90;;;;;;5113046;28;20225;-79
2023/01/05 10:16:58;;;;;;;4.32;2.42;;;10.80;99.90;;;;;;5113284;28;20227;-82
2023/01/05 10:19:32;;;;;;;3.35;1.70;;;10.80;99.90;;;;;;5112886;28;20234;-82
2023/01/05 10:22:12;;;;;;;4.97;2.00;;;10.90;99.90;;;;;;5113139;28;20225;-82
2023/01/05 10:24:52;;;;;;;6.10;2.72;;;10.90;99.90;;;;;;5113100;28;20221;-82
2023/01/05 10:27:26;;;;;;;2.63;1.70;;;11.00;99.90;;;;;;5112970;28;20226;-82
2023/01/05 10:30:00;;;;;;;2.80;2.17;;;11.00;99.90;;;;;;5113252;28;20223;-82
2023/01/05 10:32:39;;;;;;;5.07;3.47;;;11.00;99.90;;;;;;5113600;28;20307;-82
2023/01/05 10:35:24;;;;;;;7.05;2.80;;;11.00;99.90;;;;;;5113524;28;20223;-82
2023/01/05 10:38:11;;;;;;;3.80;1.45;;;11.00;99.90;;;;;;5112606;28;20230;-81
2023/01/05 10:40:52;;;;;;;3.53;1.65;;;11.00;99.90;;;;;;5113270;28;20235;-81
2023/01/05 10:43:40;;;;;;;3.75;1.20;;;11.00;99.90;;;;;;5112231;28;20230;-81
2023/01/05 10:46:10;;;;;;;8.73;2.10;;;11.10;99.90;;;;;;5103378;28;20291;-79
2023/01/05 10:48:38;;;;;;;7.07;1.55;;;11.10;99.90;;;;;;5113159;28;20249;-81
2023/01/05 10:51:06;;;;;;;4.07;2.13;;;11.10;99.90;;;;;;5111790;28;20702;-81
2023/01/05 10:53:37;;;;;;;7.70;2.95;;;11.10;99.90;;;;;;5112711;28;20227;-81
2023/01/05 10:56:07;;;;;;;5.10;2.13;;;11.10;99.90;;;;;;5112503;28;20234;-78
2023/01/05 10:59:09;;;;;;;3.15;1.73;;;11.10;99.90;;;;;;5112772;28;20615;-79
2023/01/05 11:01:42;;;;;;;5.38;1.85;;;11.20;99.90;;;;;;5113180;28;20712;-81
2023/01/05 11:04:19;;;;;;;6.82;1.70;;;11.20;99.90;;;;;;5113030;28;20245;-81
2023/01/05 11:06:47;;;;;;;3.35;2.10;;;11.20;99.90;;;;;;5115928;27;20221;-79
2023/01/05 11:09:20;;;;;;;3.72;2.83;;;11.20;99.90;;;;;;5123787;27;20234;-79
2023/01/05 11:11:54;;;;;;;5.45;2.33;;;11.20;99.90;;;;;;5116201;28;20313;-81
2023/01/05 11:14:40;;;;;;;3.63;1.70;;;11.20;99.90;;;;;;5116890;28;20235;-82
2023/01/05 11:17:18;;;;;;;14.23;8.02;;;11.40;99.90;;;;;;5118064;27;20668;-80
2023/01/05 11:19:47;;;;;;;7.07;3.33;;;11.30;99.90;;;;;;5115790;28;20223;-79
2023/01/05 11:22:29;;;;;;;6.57;3.25;;;11.30;99.90;;;;;;5116503;28;20680;-79
2023/01/05 11:25:14;;;;;;;3.38;1.92;;;11.40;99.90;;;;;;5115648;28;20223;-82
2023/01/05 11:27:46;;;;;;;5.10;2.30;;;11.30;99.90;;;;;;5115789;28;20238;-81
2023/01/05 11:30:23;;;;;;;1.88;1.45;;;11.40;99.90;;;;;;5121950;28;20677;-81
2023/01/05 11:32:52;;;;;;;4.25;2.38;;;11.40;99.90;;;;;;5128041;27;20225;-79
2023/01/05 11:35:23;;;;;;;4.00;1.60;;;11.40;99.90;;;;;;5120506;28;20717;-78
2023/01/05 11:37:50;;;;;;;6.20;1.80;;;11.40;99.90;;;;;;5115025;28;20288;-82
2023/01/05 11:40:19;;;;;;;3.47;2.22;;;11.40;99.90;;;;;;5116271;28;20314;-81
2023/01/05 11:42:46;;;;;;;12.50;5.63;;;11.30;99.90;;;;;;5115231;28;20243;-79
2023/01/05 11:45:30;;;;;;;6.40;3.67;;;11.40;99.90;;;;;;5114925;28;20249;-79
2023/01/05 11:48:02;;;;;;;4.50;2.03;;;11.40;99.90;;;;;;5103841;28;20232;-81
2023/01/05 11:50:32;;;;;;;2.38;1.42;;;11.40;99.90;;;;;;5115757;28;20233;-81
2023/01/05 11:53:08;;;;;;;3.25;1.50;;;11.40;99.90;;;;;;5115554;28;20713;-81
2023/01/05 11:55:39;;;;;;;2.88;1.95;;;11.30;99.90;;;;;;5111827;28;20214;-78
2023/01/05 11:58:23;;;;;;;8.02;3.00;;;11.30;99.90;;;;;;5112716;28;20250;-81
2023/01/05 12:01:20;;;;;;;5.15;1.70;;;11.30;99.90;;;;;;5114391;28;20252;-79
2023/01/05 12:04:02;;;;;;;5.90;1.70;;;11.20;99.90;;;;;;5115484;28;20226;-78
2023/01/05 12:06:46;;;;;;;4.07;1.75;;;11.30;99.90;;;;;;5115022;28;20263;-79
2023/01/05 12:09:22;;;;;;;7.38;3.75;;;11.30;99.90;;;;;;5115423;28;20528;-80
2023/01/05 12:12:00;;;;;;;3.78;2.08;;;11.30;99.90;;;;;;5114633;28;20301;-80
2023/01/05 12:14:44;;;;;;;5.90;2.60;;;11.30;99.90;;;;;;5115173;28;20218;-79
2023/01/05 12:17:14;;;;;;;5.70;2.42;;;11.30;99.90;;;;;;5114083;28;20218;-79
2023/01/05 12:20:01;;;;;;;5.50;1.95;;;11.40;99.90;;;;;;5115355;28;20225;-81
2023/01/05 12:22:51;;;;;;;5.53;2.53;;;11.50;99.90;;;;;;5113813;28;20291;-79
2023/01/05 12:25:32;;;;;;;5.05;2.25;;;11.50;99.90;;;;;;5106039;28;20280;-81
2023/01/05 12:28:35;;;;;;;7.28;1.88;;;11.50;99.90;;;;;;5116135;28;20410;-81
2023/01/05 12:31:08;;;;;;;5.13;1.92;;;11.50;99.90;;;;;;5088094;28;20247;-79
2023/01/05 12:34:25;;;;;;;4.45;2.50;;;11.50;99.90;;;;;;5115778;28;20733;-79
2023/01/05 12:37:21;;;;;;;3.95;2.03;;;11.50;99.90;;;;;;5114551;28;20222;-82
2023/01/05 12:40:21;;;;;;;4.00;1.92;;;11.60;99.90;;;;;;5095434;28;20229;-82
2023/01/05 12:43:00;;;;;;;3.00;1.55;;;11.60;99.90;;;;;;5101673;28;20628;-81
2023/01/05 12:45:50;;;;;;;5.88;2.80;;;11.50;99.90;;;;;;5114263;28;20218;-81
2023/01/05 12:48:25;;;;;;;7.63;2.38;;;11.50;99.90;;;;;;5105552;27;20275;-82
2023/01/05 12:51:00;;;;;;;4.13;2.53;;;11.60;99.90;;;;;;5089781;28;20234;-81
2023/01/05 12:53:38;;;;;;;4.28;3.45;;;11.60;99.90;;;;;;5081934;28;20214;-81
2023/01/05 12:56:18;;;;;;;7.68;4.95;;;11.60;99.90;;;;;;5093225;28;20648;-81
2023/01/05 12:58:53;;;;;;;4.15;3.17;;;11.60;99.90;;;;;;5083763;28;20481;-81
2023/01/05 13:01:25;;;;;;;4.70;2.10;;;11.60;99.90;;;;;;5092185;28;20298;-82
2023/01/05 13:03:59;;;;;;;4.50;2.03;;;11.50;99.90;;;;;;5092911;28;20305;-81
2023/01/05 13:06:30;;;;;;;2.70;2.25;;;11.60;99.90;;;;;;5094983;28;20717;-81
2023/01/05 13:09:03;;;;;;;4.75;1.60;;;11.50;99.90;;;;;;5095456;28;20242;-79
2023/01/05 13:11:39;;;;;;;4.10;1.95;;;11.60;99.90;;;;;;5093389;28;20292;-81
2023/01/05 13:14:12;;;;;;;7.03;2.33;;;11.60;99.90;;;;;;5092031;28;20248;-81
2023/01/05 13:16:43;;;;;;;6.25;2.58;;;11.50;99.90;;;;;;5092395;28;20313;-79
2023/01/05 13:19:15;;;;;;;4.22;1.85;;;11.50;99.90;;;;;;5084963;28;20223;-81
2023/01/05 13:21:47;;;;;;;4.40;2.15;;;11.50;99.90;;;;;;5108564;28;20223;-81
2023/01/05 13:24:21;;;;;;;3.35;1.80;;;11.50;99.90;;;;;;5092995;28;20253;-78
2023/01/05 13:26:51;;;;;;;3.72;2.67;;;11.60;99.90;;;;;;5092778;28;20671;-78
2023/01/05 13:29:32;;;;;;;6.75;2.60;;;11.60;99.90;;;;;;5093322;28;20219;-78
2023/01/05 13:32:08;;;;;;;3.72;2.00;;;11.60;99.90;;;;;;5092994;28;20629;-79
2023/01/05 13:34:52;;;;;;;3.88;2.00;;;11.60;99.90;;;;;;5091227;28;20619;-81
2023/01/05 13:37:56;;;;;;;1.30;1.20;;;11.60;99.90;;;;;;5100101;28;20230;-81
2023/01/05 13:40:48;;;;;;;8.00;1.88;;;11.50;99.90;;;;;;5031839;28;20235;-81
2023/01/05 13:43:37;;;;;;;5.15;2.30;;;11.50;99.90;;;;;;5093451;28;20227;-81
2023/01/05 13:46:26;;;;;;;11.50;5.90;;;11.40;99.90;;;;;;5095030;28;20232;-81
2023/01/05 13:49:07;;;;;;;5.18;3.53;;;11.50;99.90;;;;;;5097767;28;20616;-81